Time;durP1;ratioP1;P1;durP2;ratioP2;P2;SDS_P1;SDS_P2;PMS_P1;PMS_P2;Temp;Humidity;BMP_temperature;BMP_pressure;BME280_temperature;BME280_humidity;BME280_pressure;Samples;Min_cycle;Max_cycle;Signal;HPM_P1;HPM_P2
2022/04/16 00:02:39;;;;;;;20.77;11.60;;;;;;;;;;6261981;28;20056;-72
2022/04/16 00:05:40;;;;;;;17.17;10.35;;;;;;;;;;6263397;28;20080;-72
2022/04/16 00:08:42;;;;;;;14.98;9.60;;;;;;;;;;6262865;28;20194;-72
2022/04/16 00:11:44;;;;;;;16.83;9.25;;;;;;;;;;6264400;28;20454;-72
2022/04/16 00:14:45;;;;;;;15.48;8.85;;;;;;;;;;6266129;28;20128;-72
2022/04/16 00:17:48;;;;;;;17.50;9.73;;;;;;;;;;6257627;28;20052;-72
2022/04/16 00:20:51;;;;;;;13.95;8.95;;;;;;;;;;6264705;28;20060;-73
2022/04/16 00:23:53;;;;;;;14.97;9.20;;;;;;;;;;6264454;28;20045;-73
2022/04/16 00:26:55;;;;;;;13.85;9.43;;;;;;;;;;6261764;28;20047;-72
2022/04/16 00:29:56;;;;;;;12.60;8.63;;;;;;;;;;6263360;28;20118;-73
2022/04/16 00:33:00;;;;;;;14.38;9.10;;;;;;;;;;6264056;28;20087;-72
2022/04/16 00:36:02;;;;;;;13.60;8.63;;;;;;;;;;6261888;28;20129;-72
2022/04/16 00:39:03;;;;;;;14.65;9.27;;;;;;;;;;6263976;28;20138;-71
2022/04/16 00:42:05;;;;;;;11.60;8.30;;;;;;;;;;6259893;28;20054;-70
2022/04/16 00:45:08;;;;;;;15.50;8.60;;;;;;;;;;6257146;28;20140;-71
2022/04/16 00:48:11;;;;;;;12.87;8.63;;;;;;;;;;6259757;28;20063;-71
2022/04/16 00:51:13;;;;;;;14.80;8.48;;;;;;;;;;6255767;28;20122;-73
2022/04/16 00:54:16;;;;;;;13.55;8.25;;;;;;;;;;6254814;28;20049;-73
2022/04/16 00:57:18;;;;;;;13.60;8.02;;;;;;;;;;6255615;28;20042;-72
2022/04/16 01:00:20;;;;;;;12.30;7.93;;;;;;;;;;6256166;28;20535;-72
2022/04/16 01:03:23;;;;;;;18.08;8.73;;;;;;;;;;6260329;28;20179;-71
2022/04/16 01:06:25;;;;;;;13.73;8.37;;;;;;;;;;6262580;28;20537;-71
2022/04/16 01:09:26;;;;;;;13.23;7.50;;;;;;;;;;6265138;28;20835;-72
2022/04/16 01:12:28;;;;;;;11.63;7.70;;;;;;;;;;6260842;28;20044;-71
2022/04/16 01:15:30;;;;;;;21.52;8.82;;;;;;;;;;6260353;28;20093;-71
2022/04/16 01:18:33;;;;;;;18.17;7.93;;;;;;;;;;6268452;28;20531;-71
2022/04/16 01:21:35;;;;;;;18.73;8.82;;;;;;;;;;6262881;28;20045;-71
2022/04/16 01:24:38;;;;;;;12.70;7.78;;;;;;;;;;6261990;28;20045;-70
2022/04/16 01:27:43;;;;;;;14.50;7.80;;;;;;;;;;6258885;28;20057;-70
2022/04/16 01:30:46;;;;;;;11.90;7.95;;;;;;;;;;6261555;28;20420;-70
2022/04/16 01:33:47;;;;;;;14.65;8.00;;;;;;;;;;6262248;28;20052;-70
2022/04/16 01:36:49;;;;;;;12.35;7.40;;;;;;;;;;6259525;28;20068;-70
2022/04/16 01:39:52;;;;;;;12.10;8.10;;;;;;;;;;6259925;28;20553;-70
2022/04/16 01:42:56;;;;;;;12.90;7.93;;;;;;;;;;6261183;28;20072;-70
2022/04/16 01:45:58;;;;;;;11.40;7.82;;;;;;;;;;6259973;28;20186;-70
2022/04/16 01:48:59;;;;;;;12.63;8.00;;;;;;;;;;6261696;28;20073;-70
2022/04/16 01:52:01;;;;;;;9.77;7.32;;;;;;;;;;6253361;28;20126;-71
2022/04/16 01:55:05;;;;;;;12.43;7.68;;;;;;;;;;6257429;28;20498;-70
2022/04/16 01:58:06;;;;;;;;;;;;;;;;;;6261018;28;20072;-70
2022/04/16 02:01:08;;;;;;;14.80;8.18;;;;;;;;;;6261849;28;19925;-70
2022/04/16 02:04:10;;;;;;;10.43;7.25;;;;;;;;;;6259166;28;20053;-68
2022/04/16 02:07:12;;;;;;;13.27;8.05;;;;;;;;;;6262330;28;20052;-70
2022/04/16 02:10:16;;;;;;;14.07;8.70;;;;;;;;;;6263647;28;20050;-68
2022/04/16 02:13:18;;;;;;;11.90;8.23;;;;;;;;;;6257714;28;20056;-68
2022/04/16 02:16:19;;;;;;;12.60;8.50;;;;;;;;;;6261771;28;20073;-69
2022/04/16 02:19:21;;;;;;;12.88;8.45;;;;;;;;;;6260890;28;20084;-69
2022/04/16 02:22:24;;;;;;;16.33;8.27;;;;;;;;;;6261174;28;20073;-69
2022/04/16 02:25:27;;;;;;;12.85;8.52;;;;;;;;;;6257377;28;20088;-69
2022/04/16 02:28:28;;;;;;;16.17;8.60;;;;;;;;;;6258865;28;20069;-70
2022/04/16 02:31:30;;;;;;;17.90;8.27;;;;;;;;;;6257050;28;20338;-70
2022/04/16 02:34:31;;;;;;;12.07;8.65;;;;;;;;;;6256605;28;20060;-70
2022/04/16 02:37:33;;;;;;;13.18;9.02;;;;;;;;;;6259391;28;20191;-70
2022/04/16 02:40:36;;;;;;;16.50;9.10;;;;;;;;;;6257386;28;20171;-71
2022/04/16 02:43:38;;;;;;;14.17;8.93;;;;;;;;;;6262348;28;20603;-70
2022/04/16 02:50:08;;;;;;;12.27;8.43;;;;;;;;;;6184090;28;20124;-70
2022/04/16 02:53:09;;;;;;;17.70;9.77;;;;;;;;;;6184946;28;20053;-68
2022/04/16 02:56:12;;;;;;;16.13;9.82;;;;;;;;;;6182248;28;20149;-70
2022/04/16 02:59:14;;;;;;;15.60;9.03;;;;;;;;;;6183315;28;20081;-70
2022/04/16 03:02:15;;;;;;;16.83;10.00;;;;;;;;;;6187397;28;20658;-70
2022/04/16 03:05:17;;;;;;;14.50;9.43;;;;;;;;;;6183770;28;20593;-70
2022/04/16 03:08:18;;;;;;;17.67;9.57;;;;;;;;;;6180481;28;20502;-69
2022/04/16 03:11:21;;;;;;;16.58;9.30;;;;;;;;;;6181548;28;20141;-69
2022/04/16 03:17:42;;;;;;;17.35;8.95;;;;;;;;;;6183551;28;20457;-68
2022/04/16 03:20:44;;;;;;;14.30;9.27;;;;;;;;;;6177349;28;20074;-70
2022/04/16 03:23:46;;;;;;;19.05;9.98;;;;;;;;;;6182923;28;20058;-70
2022/04/16 03:26:49;;;;;;;18.55;10.10;;;;;;;;;;6253109;28;20053;-70
2022/04/16 03:29:51;;;;;;;15.83;9.30;;;;;;;;;;6258902;28;20038;-70
2022/04/16 03:32:53;;;;;;;15.93;9.38;;;;;;;;;;6258936;28;20087;-70
2022/04/16 03:35:55;;;;;;;14.50;9.02;;;;;;;;;;6254674;28;20120;-70
2022/04/16 03:38:56;;;;;;;17.58;9.88;;;;;;;;;;6261949;28;20163;-71
2022/04/16 03:41:59;;;;;;;15.52;9.40;;;;;;;;;;6258307;28;20528;-71
2022/04/16 03:45:01;;;;;;;16.80;9.85;;;;;;;;;;6259589;28;20084;-70
2022/04/16 03:48:05;;;;;;;17.40;9.77;;;;;;;;;;6259243;28;20045;-70
2022/04/16 03:51:07;;;;;;;16.38;9.60;;;;;;;;;;6260254;28;20187;-68
2022/04/16 04:00:44;;;;;;;17.38;9.75;;;;;;;;;;6233043;28;20599;-69
2022/04/16 04:03:46;;;;;;;16.70;9.48;;;;;;;;;;6263713;28;20082;-68
2022/04/16 04:06:48;;;;;;;18.10;9.93;;;;;;;;;;6264815;28;20042;-69
2022/04/16 04:09:50;;;;;;;22.70;10.18;;;;;;;;;;6265340;28;20072;-69
2022/04/16 04:12:53;;;;;;;18.13;10.13;;;;;;;;;;6267093;28;20099;-69
2022/04/16 04:15:54;;;;;;;20.23;10.25;;;;;;;;;;6257008;28;22044;-69
2022/04/16 04:18:56;;;;;;;17.30;9.60;;;;;;;;;;6260170;28;20683;-69
2022/04/16 04:21:57;;;;;;;19.05;9.90;;;;;;;;;;6256356;28;20045;-69
2022/04/16 04:24:59;;;;;;;17.48;9.98;;;;;;;;;;6255956;28;20129;-70
2022/04/16 04:28:02;;;;;;;19.27;10.52;;;;;;;;;;6259959;28;20191;-70
2022/04/16 04:31:04;;;;;;;18.13;10.57;;;;;;;;;;6254030;28;20054;-70
2022/04/16 04:34:05;;;;;;;18.45;9.95;;;;;;;;;;6256781;28;20451;-68
2022/04/16 04:37:07;;;;;;;16.40;9.30;;;;;;;;;;6259083;28;20140;-70
2022/04/16 04:40:09;;;;;;;16.08;9.40;;;;;;;;;;6258984;28;20500;-70
2022/04/16 04:43:13;;;;;;;15.35;9.02;;;;;;;;;;6256138;28;20081;-70
2022/04/16 04:46:14;;;;;;;14.68;9.38;;;;;;;;;;6261076;28;20041;-70
2022/04/16 04:49:16;;;;;;;18.15;10.32;;;;;;;;;;6259046;28;20123;-70
2022/04/16 04:52:21;;;;;;;19.40;10.55;;;;;;;;;;6260829;28;20074;-69
2022/04/16 04:55:23;;;;;;;19.17;10.50;;;;;;;;;;6258965;28;20045;-70
2022/04/16 04:58:26;;;;;;;18.95;10.65;;;;;;;;;;6260384;28;20049;-69
2022/04/16 05:01:27;;;;;;;16.97;9.53;;;;;;;;;;6260877;28;20060;-69
2022/04/16 05:04:29;;;;;;;18.27;10.48;;;;;;;;;;6262477;28;20054;-68
2022/04/16 05:07:31;;;;;;;24.13;10.85;;;;;;;;;;6264168;28;20118;-68
2022/04/16 05:10:32;;;;;;;19.45;11.23;;;;;;;;;;6266367;28;20179;-68
2022/04/16 05:13:35;;;;;;;17.58;10.80;;;;;;;;;;6257341;28;20527;-68
2022/04/16 05:16:37;;;;;;;18.50;10.18;;;;;;;;;;6260306;28;20103;-69
2022/04/16 05:19:38;;;;;;;23.55;10.85;;;;;;;;;;6261496;28;20083;-69
2022/04/16 05:22:40;;;;;;;22.23;10.38;;;;;;;;;;6260583;28;20073;-69
2022/04/16 05:25:41;;;;;;;22.65;11.15;;;;;;;;;;6262170;28;20049;-69
2022/04/16 05:28:44;;;;;;;23.15;11.80;;;;;;;;;;6260989;28;20069;-68
2022/04/16 05:31:46;;;;;;;18.95;10.20;;;;;;;;;;6263392;28;20186;-69
2022/04/16 05:34:48;;;;;;;20.50;10.80;;;;;;;;;;6256807;28;20060;-69
2022/04/16 05:37:50;;;;;;;21.65;11.95;;;;;;;;;;6257647;28;20493;-70
2022/04/16 05:40:52;;;;;;;25.23;10.93;;;;;;;;;;6254248;28;20191;-70
2022/04/16 05:43:55;;;;;;;21.33;10.27;;;;;;;;;;6258851;28;20072;-69
2022/04/16 05:46:56;;;;;;;21.63;11.07;;;;;;;;;;6259551;28;20106;-70
2022/04/16 05:49:58;;;;;;;21.55;10.98;;;;;;;;;;6259108;28;20413;-70
2022/04/16 05:52:59;;;;;;;21.67;11.63;;;;;;;;;;6258823;28;20552;-70
2022/04/16 05:56:01;;;;;;;18.42;10.07;;;;;;;;;;6259494;28;20508;-70
2022/04/16 05:59:04;;;;;;;21.48;12.15;;;;;;;;;;6258653;28;20073;-70
2022/04/16 06:02:06;;;;;;;23.80;11.77;;;;;;;;;;6258960;28;20172;-70
2022/04/16 06:05:08;;;;;;;22.23;10.88;;;;;;;;;;6262245;28;20049;-68
2022/04/16 06:08:10;;;;;;;19.40;11.02;;;;;;;;;;6264562;28;20408;-71
2022/04/16 06:11:12;;;;;;;32.17;11.98;;;;;;;;;;6258656;28;20517;-71
2022/04/16 06:14:15;;;;;;;32.47;11.68;;;;;;;;;;6256945;28;20061;-71
2022/04/16 06:17:16;;;;;;;19.90;10.90;;;;;;;;;;6258292;28;20408;-68
2022/04/16 06:20:18;;;;;;;20.15;10.70;;;;;;;;;;6260871;28;20448;-69
2022/04/16 06:23:20;;;;;;;18.73;11.02;;;;;;;;;;6260251;28;20564;-69
2022/04/16 06:26:22;;;;;;;18.33;10.98;;;;;;;;;;6258312;28;20409;-69
2022/04/16 06:29:25;;;;;;;21.02;11.73;;;;;;;;;;6259136;28;20493;-70
2022/04/16 06:32:26;;;;;;;27.03;12.53;;;;;;;;;;6258580;28;20142;-69
2022/04/16 06:35:28;;;;;;;20.65;11.88;;;;;;;;;;6258302;28;20045;-70
2022/04/16 06:38:31;;;;;;;19.98;10.30;;;;;;;;;;6255694;28;20500;-71
2022/04/16 06:41:33;;;;;;;19.05;10.07;;;;;;;;;;6260540;28;20103;-71
2022/04/16 06:44:36;;;;;;;21.60;11.25;;;;;;;;;;6259306;28;20133;-69
2022/04/16 06:47:38;;;;;;;16.40;10.75;;;;;;;;;;6258312;28;20046;-71
2022/04/16 06:50:39;;;;;;;17.13;10.10;;;;;;;;;;6260866;28;20125;-70
2022/04/16 06:53:42;;;;;;;20.23;10.57;;;;;;;;;;6261852;28;20451;-70
2022/04/16 06:56:44;;;;;;;22.80;11.38;;;;;;;;;;6259336;28;20542;-70
2022/04/16 06:59:47;;;;;;;19.27;10.65;;;;;;;;;;6257143;28;20566;-70
2022/04/16 07:02:48;;;;;;;19.23;10.32;;;;;;;;;;6259919;28;20068;-70
2022/04/16 07:05:50;;;;;;;15.90;9.63;;;;;;;;;;6257158;28;20961;-70
2022/04/16 07:08:52;;;;;;;22.70;9.93;;;;;;;;;;6265824;28;20521;-70
2022/04/16 07:11:54;;;;;;;16.67;8.95;;;;;;;;;;6256308;28;20057;-70
2022/04/16 07:14:57;;;;;;;15.18;9.10;;;;;;;;;;6257338;28;20179;-70
2022/04/16 07:17:59;;;;;;;13.63;8.50;;;;;;;;;;6257223;28;20124;-70
2022/04/16 07:21:00;;;;;;;10.48;6.85;;;;;;;;;;6255671;28;20123;-70
2022/04/16 07:24:02;;;;;;;13.13;7.45;;;;;;;;;;6257874;28;20577;-69
2022/04/16 07:27:04;;;;;;;14.27;8.25;;;;;;;;;;6255957;28;20114;-70
2022/04/16 07:30:08;;;;;;;14.80;7.05;;;;;;;;;;6257736;28;20162;-70
2022/04/16 07:33:09;;;;;;;11.95;7.68;;;;;;;;;;6258775;28;20070;-70
2022/04/16 07:36:11;;;;;;;11.13;6.03;;;;;;;;;;6259752;28;20132;-69
2022/04/16 07:39:13;;;;;;;8.52;6.32;;;;;;;;;;6261296;28;20045;-69
2022/04/16 07:42:14;;;;;;;11.43;6.43;;;;;;;;;;6258799;28;20068;-70
2022/04/16 07:45:17;;;;;;;12.80;6.20;;;;;;;;;;6258029;28;20140;-70
2022/04/16 07:48:19;;;;;;;11.23;6.40;;;;;;;;;;6258390;28;20072;-70
2022/04/16 07:51:21;;;;;;;11.20;6.22;;;;;;;;;;6258922;28;20053;-70
2022/04/16 07:54:23;;;;;;;11.45;6.03;;;;;;;;;;6260550;28;20083;-70
2022/04/16 07:57:24;;;;;;;10.00;5.88;;;;;;;;;;6259974;28;20049;-71
2022/04/16 08:00:27;;;;;;;11.18;5.40;;;;;;;;;;6264842;28;20811;-70
2022/04/16 08:03:29;;;;;;;15.18;6.00;;;;;;;;;;6262750;28;20175;-70
2022/04/16 08:06:31;;;;;;;9.10;4.63;;;;;;;;;;6257078;28;20061;-71
2022/04/16 08:09:32;;;;;;;8.70;4.90;;;;;;;;;;6258669;28;20443;-70
2022/04/16 08:12:34;;;;;;;7.80;4.25;;;;;;;;;;6248133;28;20132;-71
2022/04/16 08:15:37;;;;;;;8.50;5.30;;;;;;;;;;6253185;28;20103;-71
2022/04/16 08:18:38;;;;;;;;;;;;;;;;;;6258211;28;20124;-71
2022/04/16 08:21:40;;;;;;;11.48;6.38;;;;;;;;;;6255766;28;19958;-70
2022/04/16 08:24:42;;;;;;;10.10;6.90;;;;;;;;;;6260459;28;20063;-71
2022/04/16 08:27:45;;;;;;;11.52;7.70;;;;;;;;;;6253373;28;20171;-71
2022/04/16 08:30:48;;;;;;;11.98;8.23;;;;;;;;;;6257216;28;20546;-71
2022/04/16 08:33:50;;;;;;;;;;;;;;;;;;6240179;28;20080;-70
2022/04/16 08:36:51;;;;;;;14.45;7.38;;;;;;;;;;6256403;28;20387;-71
2022/04/16 08:39:53;;;;;;;18.10;9.45;;;;;;;;;;6257317;28;20543;-70
2022/04/16 08:42:54;;;;;;;13.25;7.30;;;;;;;;;;6264282;28;20053;-71
2022/04/16 08:45:57;;;;;;;12.82;7.28;;;;;;;;;;6266484;28;20065;-70
2022/04/16 08:48:59;;;;;;;11.40;7.10;;;;;;;;;;6262747;28;20139;-70
2022/04/16 08:52:02;;;;;;;13.63;7.50;;;;;;;;;;6261079;28;20191;-71
2022/04/16 08:55:06;;;;;;;11.85;7.70;;;;;;;;;;6265692;28;20060;-71
2022/04/16 08:58:07;;;;;;;13.20;7.15;;;;;;;;;;6262978;28;20060;-71
2022/04/16 09:01:10;;;;;;;12.82;6.90;;;;;;;;;;6266768;28;20546;-71
2022/04/16 09:04:20;;;;;;;14.93;6.88;;;;;;;;;;6261553;28;20408;-71
2022/04/16 09:07:21;;;;;;;10.23;6.38;;;;;;;;;;6263175;28;20208;-70
2022/04/16 09:10:26;;;;;;;11.65;7.20;;;;;;;;;;6257910;28;20067;-72
2022/04/16 09:13:27;;;;;;;9.88;7.00;;;;;;;;;;6262002;28;20523;-69
2022/04/16 09:16:32;;;;;;;13.80;6.70;;;;;;;;;;6259594;28;20088;-68
2022/04/16 09:19:33;;;;;;;14.55;8.65;;;;;;;;;;6258950;28;20055;-69
2022/04/16 09:22:37;;;;;;;15.88;7.35;;;;;;;;;;6260237;28;20045;-69
2022/04/16 09:25:42;;;;;;;12.98;8.02;;;;;;;;;;6258669;28;20457;-69
2022/04/16 09:28:45;;;;;;;12.95;8.48;;;;;;;;;;6261185;28;20053;-69
2022/04/16 09:31:49;;;;;;;;;;;;;;;;;;6260006;28;20056;-69
2022/04/16 09:34:51;;;;;;;12.63;8.77;;;;;;;;;;6260304;28;19927;-75
2022/04/16 09:37:55;;;;;;;13.30;8.05;;;;;;;;;;6260593;28;20053;-74
2022/04/16 09:40:56;;;;;;;13.30;7.80;;;;;;;;;;6260843;28;20125;-76
2022/04/16 09:43:58;;;;;;;11.57;7.70;;;;;;;;;;6259946;28;20124;-68
2022/04/16 09:47:02;;;;;;;43.20;37.63;;;;;;;;;;6259944;28;20061;-68
2022/04/16 09:50:04;;;;;;;23.05;16.38;;;;;;;;;;6258176;28;20049;-69
2022/04/16 09:53:06;;;;;;;;;;;;;;;;;;6262664;28;20171;-68
2022/04/16 09:56:11;;;;;;;10.63;7.57;;;;;;;;;;6262594;28;19928;-68
2022/04/16 09:59:14;;;;;;;16.05;8.10;;;;;;;;;;6261106;28;20493;-68
2022/04/16 10:02:16;;;;;;;;;;;;;;;;;;6265067;28;20126;-69
2022/04/16 10:05:18;;;;;;;;;;;;;;;;;;6261992;28;20331;-68
2022/04/16 10:08:20;;;;;;;13.70;8.60;;;;;;;;;;6263512;28;19924;-68
2022/04/16 10:11:42;;;;;;;13.15;10.05;;;;;;;;;;6257085;28;20134;-68
2022/04/16 10:14:47;;;;;;;15.05;9.88;;;;;;;;;;6256562;28;20056;-68
2022/04/16 10:17:51;;;;;;;14.98;10.85;;;;;;;;;;6260663;28;20106;-69
2022/04/16 10:20:54;;;;;;;20.08;11.05;;;;;;;;;;6260222;28;20654;-69
2022/04/16 10:24:01;;;;;;;16.58;10.95;;;;;;;;;;6262569;28;20041;-68
2022/04/16 10:27:08;;;;;;;14.50;10.15;;;;;;;;;;6255045;28;20057;-68
2022/04/16 10:30:11;;;;;;;15.73;12.45;;;;;;;;;;6257955;28;20056;-69
2022/04/16 10:33:18;;;;;;;17.00;11.38;;;;;;;;;;6257537;28;20053;-68
2022/04/16 10:36:25;;;;;;;19.83;13.15;;;;;;;;;;6254751;28;20202;-68
2022/04/16 10:39:28;;;;;;;17.42;12.13;;;;;;;;;;6258586;28;20423;-69
2022/04/16 10:42:31;;;;;;;17.92;12.75;;;;;;;;;;6258302;28;20049;-68
2022/04/16 10:45:35;;;;;;;22.77;13.98;;;;;;;;;;6259619;28;20496;-68
2022/04/16 10:48:41;;;;;;;15.80;11.88;;;;;;;;;;6258775;28;20126;-68
2022/04/16 10:51:42;;;;;;;14.35;10.35;;;;;;;;;;6253501;28;20069;-69
2022/04/16 10:54:47;;;;;;;16.92;10.85;;;;;;;;;;6258400;28;20485;-68
2022/04/16 10:57:57;;;;;;;169.85;116.07;;;;;;;;;;6256863;28;20516;-68
2022/04/16 11:01:07;;;;;;;12.07;8.97;;;;;;;;;;6257702;28;20048;-70
2022/04/16 11:04:14;;;;;;;29.48;26.33;;;;;;;;;;6252866;28;20045;-70
2022/04/16 11:07:16;;;;;;;39.72;25.98;;;;;;;;;;6255899;28;20808;-69
2022/04/16 11:10:22;;;;;;;14.02;9.73;;;;;;;;;;6252928;28;20139;-69
2022/04/16 11:13:24;;;;;;;30.73;24.00;;;;;;;;;;6256453;28;20110;-68
2022/04/16 11:16:26;;;;;;;32.35;24.17;;;;;;;;;;6252485;28;20407;-68
2022/04/16 11:19:31;;;;;;;12.32;8.57;;;;;;;;;;6259425;28;20060;-68
2022/04/16 11:22:33;;;;;;;30.63;22.75;;;;;;;;;;6253481;28;20072;-67
2022/04/16 11:35:32;;;;;;;12.77;7.15;;;;;;;;;;6257213;28;20049;-69
2022/04/16 11:38:35;;;;;;;9.43;6.80;;;;;;;;;;6258681;28;20095;-69
2022/04/16 11:41:36;;;;;;;11.82;6.78;;;;;;;;;;6259503;28;20553;-69
2022/04/16 11:44:41;;;;;;;10.32;7.03;;;;;;;;;;6261665;28;20865;-69
2022/04/16 11:47:43;;;;;;;10.85;6.68;;;;;;;;;;6260765;28;20045;-69
2022/04/16 11:50:46;;;;;;;13.57;7.57;;;;;;;;;;6256692;28;20140;-69
2022/04/16 11:53:52;;;;;;;11.32;7.95;;;;;;;;;;6257560;28;20052;-68
2022/04/16 11:56:55;;;;;;;15.07;8.07;;;;;;;;;;6259967;28;20056;-69
2022/04/16 11:59:57;;;;;;;11.25;7.45;;;;;;;;;;6258434;28;20049;-70
2022/04/16 12:02:59;;;;;;;21.00;9.07;;;;;;;;;;6251315;28;20041;-69
2022/04/16 12:06:01;;;;;;;13.07;8.50;;;;;;;;;;6249785;28;20187;-70
2022/04/16 12:09:04;;;;;;;12.00;8.55;;;;;;;;;;6247616;28;20063;-69
2022/04/16 12:12:06;;;;;;;10.45;7.32;;;;;;;;;;6254654;28;20464;-70
2022/04/16 12:15:08;;;;;;;9.93;6.90;;;;;;;;;;6258772;28;20037;-70
2022/04/16 12:18:10;;;;;;;11.50;7.70;;;;;;;;;;6261977;28;20489;-70
2022/04/16 12:21:15;;;;;;;13.93;8.02;;;;;;;;;;6262189;28;20214;-70
2022/04/16 12:24:25;;;;;;;14.52;8.10;;;;;;;;;;6264731;28;20060;-70
2022/04/16 12:27:27;;;;;;;15.40;8.02;;;;;;;;;;6261426;28;20048;-70
2022/04/16 12:30:31;;;;;;;13.35;7.68;;;;;;;;;;6261543;28;20416;-73
2022/04/16 12:33:33;;;;;;;14.00;7.82;;;;;;;;;;6260126;28;20057;-71
2022/04/16 12:36:36;;;;;;;10.77;7.28;;;;;;;;;;6261566;28;20052;-70
2022/04/16 12:39:38;;;;;;;11.00;7.05;;;;;;;;;;6264833;28;20130;-71
2022/04/16 12:42:39;;;;;;;9.85;7.55;;;;;;;;;;6264574;28;20128;-70
2022/04/16 12:45:41;;;;;;;10.90;7.85;;;;;;;;;;6262798;28;20597;-71
2022/04/16 12:48:42;;;;;;;13.30;7.00;;;;;;;;;;6264266;28;20143;-70
2022/04/16 12:51:48;;;;;;;11.27;7.68;;;;;;;;;;6266232;28;20080;-71
2022/04/16 12:54:49;;;;;;;15.27;9.27;;;;;;;;;;6267823;28;20063;-70
2022/04/16 12:57:51;;;;;;;12.00;8.48;;;;;;;;;;6265450;28;20071;-70
2022/04/16 13:00:53;;;;;;;11.88;8.15;;;;;;;;;;6261451;28;20146;-70
2022/04/16 13:03:55;;;;;;;10.00;7.78;;;;;;;;;;6259840;28;20055;-70
2022/04/16 13:06:58;;;;;;;10.57;6.93;;;;;;;;;;6259455;28;20056;-70
2022/04/16 13:09:59;;;;;;;9.00;6.57;;;;;;;;;;6256784;28;20091;-70
2022/04/16 13:13:02;;;;;;;10.00;5.80;;;;;;;;;;6259401;28;20489;-70
2022/04/16 13:16:04;;;;;;;9.48;6.57;;;;;;;;;;6254038;28;20045;-70
2022/04/16 13:19:06;;;;;;;;;;;;;;;;;;6250867;28;20128;-70
2022/04/16 13:22:09;;;;;;;8.43;5.60;;;;;;;;;;6256639;28;19960;-70
2022/04/16 13:25:10;;;;;;;9.00;6.03;;;;;;;;;;6253812;28;20175;-70
2022/04/16 13:28:12;;;;;;;8.27;6.18;;;;;;;;;;6252446;28;20051;-70
2022/04/16 13:31:14;;;;;;;8.65;6.35;;;;;;;;;;6251386;28;20114;-70
2022/04/16 13:34:15;;;;;;;6.78;6.18;;;;;;;;;;6261000;28;20137;-70
2022/04/16 13:37:19;;;;;;;8.05;5.97;;;;;;;;;;6263572;28;20163;-70
2022/04/16 13:43:43;;;;;;;9.55;5.22;;;;;;;;;;6261484;28;20049;-70
2022/04/16 13:46:45;;;;;;;9.10;5.45;;;;;;;;;;6262907;28;20049;-70
2022/04/16 13:49:46;;;;;;;6.38;4.95;;;;;;;;;;6263460;28;20500;-70
2022/04/16 13:52:49;;;;;;;7.57;5.35;;;;;;;;;;6265556;28;20629;-70
2022/04/16 13:55:51;;;;;;;8.57;6.10;;;;;;;;;;6262774;28;20122;-71
2022/04/16 13:58:53;;;;;;;7.75;4.70;;;;;;;;;;6264598;28;20053;-70
2022/04/16 14:01:55;;;;;;;9.18;5.68;;;;;;;;;;6260791;28;20524;-71
2022/04/16 14:08:18;;;;;;;6.45;5.40;;;;;;;;;;6260177;28;20045;-69
2022/04/16 14:11:20;;;;;;;6.53;5.00;;;;;;;;;;6261355;28;20045;-70
2022/04/16 14:14:21;;;;;;;7.53;5.43;;;;;;;;;;6258434;28;20134;-69
2022/04/16 14:17:23;;;;;;;9.52;4.88;;;;;;;;;;6264753;28;20054;-69
2022/04/16 14:20:24;;;;;;;10.48;5.20;;;;;;;;;;6250506;28;20528;-70
2022/04/16 14:23:27;;;;;;;7.63;5.75;;;;;;;;;;6254098;28;20057;-70
2022/04/16 14:26:29;;;;;;;7.78;5.80;;;;;;;;;;6249412;28;20127;-69
2022/04/16 14:29:32;;;;;;;10.02;5.40;;;;;;;;;;6258225;28;20056;-70
2022/04/16 14:32:34;;;;;;;7.07;4.68;;;;;;;;;;6256559;28;20045;-69
2022/04/16 14:35:35;;;;;;;8.02;5.10;;;;;;;;;;6255288;28;20045;-69
2022/04/16 14:38:39;;;;;;;7.20;5.28;;;;;;;;;;6255191;28;20064;-70
2022/04/16 14:42:10;;;;;;;5.57;4.75;;;;;;;;;;6256397;28;20098;-70
2022/04/16 14:45:26;;;;;;;6.93;5.30;;;;;;;;;;6256079;28;20048;-70
2022/04/16 14:48:38;;;;;;;5.63;4.18;;;;;;;;;;6254740;28;20094;-70
2022/04/16 14:51:43;;;;;;;5.47;4.35;;;;;;;;;;6260539;28;20041;-71
2022/04/16 14:54:53;;;;;;;7.43;4.38;;;;;;;;;;6250132;28;20070;-71
2022/04/16 14:58:11;;;;;;;6.40;4.18;;;;;;;;;;6260055;28;20037;-71
2022/04/16 15:01:14;;;;;;;7.40;4.03;;;;;;;;;;6259961;28;20050;-71
2022/04/16 15:04:16;;;;;;;4.03;3.33;;;;;;;;;;6250767;28;20056;-71
2022/04/16 15:07:30;;;;;;;;;;;;;;;;;;6258619;28;20477;-71
2022/04/16 15:10:33;;;;;;;7.18;3.88;;;;;;;;;;6256605;28;19955;-71
2022/04/16 15:13:34;;;;;;;6.07;3.92;;;;;;;;;;6262030;28;20049;-71
2022/04/16 15:16:36;;;;;;;7.95;3.60;;;;;;;;;;6256391;28;20141;-71
2022/04/16 15:19:45;;;;;;;21.58;5.15;;;;;;;;;;6257402;28;20042;-71
2022/04/16 15:23:01;;;;;;;25.42;5.00;;;;;;;;;;6257588;28;20578;-72
2022/04/16 15:26:16;;;;;;;13.68;4.35;;;;;;;;;;6257069;28;20077;-71
2022/04/16 15:29:27;;;;;;;11.90;4.40;;;;;;;;;;6256600;28;20049;-72
2022/04/16 15:32:35;;;;;;;14.70;4.70;;;;;;;;;;6254283;28;20060;-72
2022/04/16 15:35:36;;;;;;;13.52;4.40;;;;;;;;;;6253628;28;20083;-70
2022/04/16 15:38:42;;;;;;;10.30;4.95;;;;;;;;;;6253839;28;20144;-69
2022/04/16 15:41:51;;;;;;;34.30;21.35;;;;;;;;;;6255144;28;20046;-69
2022/04/16 15:45:04;;;;;;;15.77;8.90;;;;;;;;;;6254313;28;20050;-69
2022/04/16 15:48:20;;;;;;;8.75;5.25;;;;;;;;;;6253397;28;20497;-69
2022/04/16 15:51:27;;;;;;;10.15;5.65;;;;;;;;;;6255357;28;20067;-68
2022/04/16 15:54:29;;;;;;;10.85;5.13;;;;;;;;;;6259465;28;20057;-69
2022/04/16 15:57:33;;;;;;;20.08;4.95;;;;;;;;;;6259237;28;20060;-68
2022/04/16 16:00:35;;;;;;;8.07;4.40;;;;;;;;;;6259443;28;20076;-67
2022/04/16 16:03:44;;;;;;;8.68;4.38;;;;;;;;;;6259685;28;20095;-66
2022/04/16 16:06:55;;;;;;;7.32;4.45;;;;;;;;;;6254922;28;20410;-67
2022/04/16 16:10:03;;;;;;;8.52;3.95;;;;;;;;;;6255171;28;20472;-67
2022/04/16 16:13:11;;;;;;;12.88;3.67;;;;;;;;;;6253712;28;20049;-67
2022/04/16 16:16:13;;;;;;;12.18;3.00;;;;;;;;;;6256897;28;20072;-68
2022/04/16 16:19:19;;;;;;;13.93;2.00;;;;;;;;;;6257231;28;20142;-68
2022/04/16 16:22:30;;;;;;;9.32;2.08;;;;;;;;;;6257834;28;20516;-68
2022/04/16 16:25:36;;;;;;;5.13;1.77;;;;;;;;;;6256570;28;20044;-68
2022/04/16 16:28:47;;;;;;;6.85;2.10;;;;;;;;;;6255571;28;20049;-68
2022/04/16 16:31:55;;;;;;;5.60;2.15;;;;;;;;;;6256358;28;20496;-67
2022/04/16 16:34:57;;;;;;;5.72;2.38;;;;;;;;;;6259543;28;20041;-67
2022/04/16 16:37:59;;;;;;;6.32;1.73;;;;;;;;;;6257796;28;20061;-67
2022/04/16 16:41:01;;;;;;;2.60;1.58;;;;;;;;;;6255480;28;20048;-85
2022/04/16 16:44:05;;;;;;;4.00;1.75;;;;;;;;;;6257404;28;20045;-70
2022/04/16 16:47:06;;;;;;;;;;;;;;;;;;6259206;28;20084;-77
2022/04/16 16:50:19;;;;;;;8.77;1.67;;;;;;;;;;6262065;28;20002;-73
2022/04/16 16:53:24;;;;;;;10.23;1.40;;;;;;;;;;6259222;28;20045;-72
2022/04/16 16:56:34;;;;;;;2.72;1.10;;;;;;;;;;6258002;28;20276;-75
2022/04/16 16:59:44;;;;;;;3.42;1.13;;;;;;;;;;6259928;28;20056;-75
2022/04/16 17:06:12;;;;;;;2.30;1.15;;;;;;;;;;6257683;28;20473;-76
2022/04/16 17:09:16;;;;;;;19.52;9.40;;;;;;;;;;6254381;28;20045;-73
2022/04/16 17:12:19;;;;;;;14.60;7.00;;;;;;;;;;6255624;28;20421;-74
2022/04/16 17:18:40;;;;;;;7.82;4.63;;;;;;;;;;6252124;28;20061;-74
2022/04/16 17:21:42;;;;;;;8.73;4.45;;;;;;;;;;6255073;28;20412;-74
2022/04/16 17:24:44;;;;;;;7.47;4.32;;;;;;;;;;6255271;28;20399;-74
2022/04/16 17:27:51;;;;;;;20.20;9.82;;;;;;;;;;6253503;28;20095;-75
2022/04/16 17:30:55;;;;;;;3.63;1.70;;;;;;;;;;6253159;28;20052;-75
2022/04/16 17:33:56;;;;;;;12.85;3.00;;;;;;;;;;6257109;28;20393;-77
2022/04/16 17:36:58;;;;;;;4.13;2.53;;;;;;;;;;6259844;28;20049;-77
2022/04/16 17:40:00;;;;;;;2.58;1.50;;;;;;;;;;6256335;28;20061;-72
2022/04/16 17:43:02;;;;;;;7.40;1.67;;;;;;;;;;6262189;28;20130;-72
2022/04/16 17:46:05;;;;;;;4.30;1.58;;;;;;;;;;6265226;28;20136;-72
2022/04/16 17:49:07;;;;;;;5.60;1.67;;;;;;;;;;6266452;28;20049;-72
2022/04/16 17:52:09;;;;;;;4.47;1.40;;;;;;;;;;6265250;28;20052;-72
2022/04/16 17:55:11;;;;;;;3.55;1.33;;;;;;;;;;6264285;28;20056;-72
2022/04/16 17:58:12;;;;;;;5.10;2.03;;;;;;;;;;6266157;28;20131;-73
2022/04/16 18:01:15;;;;;;;5.07;1.80;;;;;;;;;;6267951;28;20052;-71
2022/04/16 18:04:17;;;;;;;8.05;2.50;;;;;;;;;;6262356;28;20056;-71
2022/04/16 18:07:37;;;;;;;9.45;3.30;;;;;;;;;;6256344;28;20144;-71
2022/04/16 18:10:39;;;;;;;5.18;2.38;;;;;;;;;;6256371;28;20067;-70
2022/04/16 18:13:42;;;;;;;5.53;2.10;;;;;;;;;;6258885;28;20094;-72
2022/04/16 18:16:46;;;;;;;2.50;1.80;;;;;;;;;;6260197;28;20049;-72
2022/04/16 18:19:59;;;;;;;3.95;2.05;;;;;;;;;;6259820;28;20048;-72
2022/04/16 18:23:02;;;;;;;3.00;1.63;;;;;;;;;;6261670;28;20068;-71
2022/04/16 18:26:04;;;;;;;3.40;1.45;;;;;;;;;;6261265;28;20964;-72
2022/04/16 18:29:06;;;;;;;6.45;1.60;;;;;;;;;;6263921;28;20424;-73
2022/04/16 18:32:10;;;;;;;3.70;1.80;;;;;;;;;;6263032;28;20134;-71
2022/04/16 18:35:13;;;;;;;3.72;1.80;;;;;;;;;;6263535;28;20472;-71
2022/04/16 18:38:15;;;;;;;3.65;1.63;;;;;;;;;;6260021;28;20045;-72
2022/04/16 18:41:18;;;;;;;2.85;1.63;;;;;;;;;;6261186;28;20045;-72
2022/04/16 18:44:19;;;;;;;3.92;1.85;;;;;;;;;;6262499;28;21176;-72